Redfield, New York
Current Conditions -  °F | °C
As of 12:53 PM on Wednesday 28 Jan 2015 (Local Time) from KRME Reporting Station
Clear Clear  
Wind Chill:   Ceiling: Unl
Heat Index: 17°   Visibility: 10mi
Dew Point:   Wind: 8mph
Humidity: 47%   Direction: 270°W
Pressure: 30.21"   Gusts: NA
Location:  43.53°N, 75.82°W
Report Text: KRME 281753Z 27007KT 10SM CLR M08/M18 A3021 RMK AO2 UPE51 SLP239 P0000 60000 T10831178 11083 21189 58003
Loading
Personal Weather Stations






























Interactive Weather Map New forecast layout! Learn more

10-Day Weather Forecast

Advertisements
Track Severe Weather on mobile